sensor_id;sensor_type;location;lat;lon;timestamp;P1;durP1;ratioP1;P2;durP2;ratioP2
20986;SDS011;10652;50.306;8.570;2023-09-07T00:03:35;3.38;;;2.88;;
20986;SDS011;10652;50.306;8.570;2023-09-07T00:07:43;4.50;;;3.20;;
20986;SDS011;10652;50.306;8.570;2023-09-07T00:11:45;4.60;;;2.80;;
20986;SDS011;10652;50.306;8.570;2023-09-07T00:15:47;4.43;;;3.10;;
20986;SDS011;10652;50.306;8.570;2023-09-07T00:19:49;3.78;;;3.00;;
20986;SDS011;10652;50.306;8.570;2023-09-07T00:23:52;4.03;;;3.05;;
20986;SDS011;10652;50.306;8.570;2023-09-07T00:27:55;3.47;;;3.10;;
20986;SDS011;10652;50.306;8.570;2023-09-07T00:31:57;4.90;;;3.20;;
20986;SDS011;10652;50.306;8.570;2023-09-07T00:36:01;3.28;;;2.83;;
20986;SDS011;10652;50.306;8.570;2023-09-07T00:40:03;4.15;;;2.85;;
20986;SDS011;10652;50.306;8.570;2023-09-07T00:44:10;3.20;;;2.90;;
20986;SDS011;10652;50.306;8.570;2023-09-07T00:48:13;4.85;;;2.80;;
20986;SDS011;10652;50.306;8.570;2023-09-07T00:52:18;3.92;;;3.08;;
20986;SDS011;10652;50.306;8.570;2023-09-07T00:56:21;4.95;;;3.30;;
20986;SDS011;10652;50.306;8.570;2023-09-07T01:00:24;3.60;;;2.90;;
20986;SDS011;10652;50.306;8.570;2023-09-07T01:04:26;4.35;;;3.22;;
20986;SDS011;10652;50.306;8.570;2023-09-07T01:08:31;3.13;;;2.83;;
20986;SDS011;10652;50.306;8.570;2023-09-07T01:12:37;4.95;;;3.20;;
20986;SDS011;10652;50.306;8.570;2023-09-07T01:16:39;6.40;;;3.30;;
20986;SDS011;10652;50.306;8.570;2023-09-07T01:20:43;4.07;;;3.67;;
20986;SDS011;10652;50.306;8.570;2023-09-07T01:24:47;3.65;;;3.28;;
20986;SDS011;10652;50.306;8.570;2023-09-07T01:28:50;3.25;;;2.95;;
20986;SDS011;10652;50.306;8.570;2023-09-07T01:32:52;5.72;;;3.28;;
20986;SDS011;10652;50.306;8.570;2023-09-07T01:36:54;4.38;;;2.95;;
20986;SDS011;10652;50.306;8.570;2023-09-07T01:40:57;3.83;;;2.90;;
20986;SDS011;10652;50.306;8.570;2023-09-07T01:44:59;3.33;;;3.03;;
20986;SDS011;10652;50.306;8.570;2023-09-07T01:49:01;3.97;;;2.85;;
20986;SDS011;10652;50.306;8.570;2023-09-07T01:53:04;5.70;;;3.22;;
20986;SDS011;10652;50.306;8.570;2023-09-07T01:57:06;4.28;;;3.13;;
20986;SDS011;10652;50.306;8.570;2023-09-07T02:01:19;6.53;;;3.67;;
20986;SDS011;10652;50.306;8.570;2023-09-07T02:05:32;4.82;;;3.42;;
20986;SDS011;10652;50.306;8.570;2023-09-07T02:09:34;4.88;;;3.92;;
20986;SDS011;10652;50.306;8.570;2023-09-07T02:13:36;4.20;;;3.40;;
20986;SDS011;10652;50.306;8.570;2023-09-07T02:17:39;3.75;;;3.38;;
20986;SDS011;10652;50.306;8.570;2023-09-07T02:21:41;9.07;;;3.60;;
20986;SDS011;10652;50.306;8.570;2023-09-07T02:25:44;5.50;;;3.20;;
20986;SDS011;10652;50.306;8.570;2023-09-07T02:29:46;4.55;;;3.00;;
20986;SDS011;10652;50.306;8.570;2023-09-07T02:33:49;5.15;;;3.45;;
20986;SDS011;10652;50.306;8.570;2023-09-07T02:37:51;4.70;;;3.00;;
20986;SDS011;10652;50.306;8.570;2023-09-07T02:41:53;6.03;;;3.30;;
20986;SDS011;10652;50.306;8.570;2023-09-07T02:45:55;4.20;;;3.55;;
20986;SDS011;10652;50.306;8.570;2023-09-07T02:49:57;7.35;;;3.60;;
20986;SDS011;10652;50.306;8.570;2023-09-07T02:54:00;3.75;;;3.15;;
20986;SDS011;10652;50.306;8.570;2023-09-07T02:58:05;3.72;;;3.35;;
20986;SDS011;10652;50.306;8.570;2023-09-07T03:02:08;6.47;;;3.60;;
20986;SDS011;10652;50.306;8.570;2023-09-07T03:06:12;3.67;;;3.25;;
20986;SDS011;10652;50.306;8.570;2023-09-07T03:10:18;6.37;;;3.17;;
20986;SDS011;10652;50.306;8.570;2023-09-07T03:14:21;4.82;;;3.53;;
20986;SDS011;10652;50.306;8.570;2023-09-07T03:18:23;4.13;;;3.17;;
20986;SDS011;10652;50.306;8.570;2023-09-07T03:22:25;4.07;;;3.03;;
20986;SDS011;10652;50.306;8.570;2023-09-07T03:26:28;5.53;;;3.50;;
20986;SDS011;10652;50.306;8.570;2023-09-07T03:30:31;4.53;;;3.42;;
20986;SDS011;10652;50.306;8.570;2023-09-07T03:34:33;4.22;;;3.15;;
20986;SDS011;10652;50.306;8.570;2023-09-07T03:38:35;3.85;;;3.25;;
20986;SDS011;10652;50.306;8.570;2023-09-07T03:42:37;4.53;;;3.20;;
20986;SDS011;10652;50.306;8.570;2023-09-07T03:46:41;4.38;;;3.13;;
20986;SDS011;10652;50.306;8.570;2023-09-07T03:50:43;3.90;;;3.50;;
20986;SDS011;10652;50.306;8.570;2023-09-07T03:54:46;4.53;;;3.70;;
20986;SDS011;10652;50.306;8.570;2023-09-07T03:58:48;4.47;;;3.40;;
20986;SDS011;10652;50.306;8.570;2023-09-07T04:02:51;5.20;;;3.53;;
20986;SDS011;10652;50.306;8.570;2023-09-07T04:06:53;4.00;;;3.33;;
20986;SDS011;10652;50.306;8.570;2023-09-07T04:10:56;4.50;;;3.30;;
20986;SDS011;10652;50.306;8.570;2023-09-07T04:14:59;4.50;;;3.92;;
20986;SDS011;10652;50.306;8.570;2023-09-07T04:19:02;3.95;;;3.55;;
20986;SDS011;10652;50.306;8.570;2023-09-07T04:23:05;3.67;;;3.38;;
20986;SDS011;10652;50.306;8.570;2023-09-07T04:27:07;4.45;;;3.33;;
20986;SDS011;10652;50.306;8.570;2023-09-07T04:31:10;5.97;;;3.40;;
20986;SDS011;10652;50.306;8.570;2023-09-07T04:35:14;4.72;;;3.17;;
20986;SDS011;10652;50.306;8.570;2023-09-07T04:39:16;4.00;;;3.20;;
20986;SDS011;10652;50.306;8.570;2023-09-07T04:43:18;3.25;;;2.92;;
20986;SDS011;10652;50.306;8.570;2023-09-07T04:47:20;6.25;;;4.45;;
20986;SDS011;10652;50.306;8.570;2023-09-07T04:51:23;6.53;;;3.90;;
20986;SDS011;10652;50.306;8.570;2023-09-07T04:55:27;5.93;;;3.80;;
20986;SDS011;10652;50.306;8.570;2023-09-07T04:59:30;3.67;;;3.22;;
20986;SDS011;10652;50.306;8.570;2023-09-07T05:03:32;6.63;;;3.40;;
20986;SDS011;10652;50.306;8.570;2023-09-07T05:07:35;5.90;;;3.63;;
20986;SDS011;10652;50.306;8.570;2023-09-07T05:11:37;4.38;;;3.40;;
20986;SDS011;10652;50.306;8.570;2023-09-07T05:15:47;4.00;;;3.17;;
20986;SDS011;10652;50.306;8.570;2023-09-07T05:19:51;5.03;;;3.47;;
20986;SDS011;10652;50.306;8.570;2023-09-07T05:23:54;4.10;;;3.70;;
20986;SDS011;10652;50.306;8.570;2023-09-07T05:27:56;4.85;;;3.50;;
20986;SDS011;10652;50.306;8.570;2023-09-07T05:31:58;5.00;;;3.33;;
20986;SDS011;10652;50.306;8.570;2023-09-07T05:36:04;5.10;;;4.25;;
20986;SDS011;10652;50.306;8.570;2023-09-07T05:40:07;7.28;;;4.40;;
20986;SDS011;10652;50.306;8.570;2023-09-07T05:44:10;4.93;;;3.92;;
20986;SDS011;10652;50.306;8.570;2023-09-07T05:48:12;5.78;;;4.13;;
20986;SDS011;10652;50.306;8.570;2023-09-07T05:52:14;5.25;;;3.45;;
20986;SDS011;10652;50.306;8.570;2023-09-07T05:56:16;5.05;;;3.55;;
20986;SDS011;10652;50.306;8.570;2023-09-07T06:00:18;5.38;;;3.90;;
20986;SDS011;10652;50.306;8.570;2023-09-07T06:04:22;6.50;;;4.10;;
20986;SDS011;10652;50.306;8.570;2023-09-07T06:08:24;6.00;;;4.03;;
20986;SDS011;10652;50.306;8.570;2023-09-07T06:12:26;5.80;;;4.03;;
20986;SDS011;10652;50.306;8.570;2023-09-07T06:16:29;5.50;;;3.67;;
20986;SDS011;10652;50.306;8.570;2023-09-07T06:20:31;9.15;;;4.15;;
20986;SDS011;10652;50.306;8.570;2023-09-07T06:24:35;5.53;;;3.47;;
20986;SDS011;10652;50.306;8.570;2023-09-07T06:28:37;4.72;;;3.60;;
20986;SDS011;10652;50.306;8.570;2023-09-07T06:32:40;6.22;;;3.67;;
20986;SDS011;10652;50.306;8.570;2023-09-07T06:36:44;5.82;;;3.55;;
20986;SDS011;10652;50.306;8.570;2023-09-07T06:40:52;6.55;;;4.30;;
20986;SDS011;10652;50.306;8.570;2023-09-07T06:44:55;6.68;;;3.88;;
20986;SDS011;10652;50.306;8.570;2023-09-07T06:48:58;8.88;;;4.03;;
20986;SDS011;10652;50.306;8.570;2023-09-07T06:53:00;10.73;;;4.20;;
20986;SDS011;10652;50.306;8.570;2023-09-07T06:57:02;4.88;;;4.10;;
20986;SDS011;10652;50.306;8.570;2023-09-07T07:01:04;9.98;;;4.22;;
20986;SDS011;10652;50.306;8.570;2023-09-07T07:05:08;5.95;;;4.25;;
20986;SDS011;10652;50.306;8.570;2023-09-07T07:09:11;4.82;;;4.07;;
20986;SDS011;10652;50.306;8.570;2023-09-07T07:13:13;5.30;;;3.78;;
20986;SDS011;10652;50.306;8.570;2023-09-07T07:17:16;9.13;;;3.75;;
20986;SDS011;10652;50.306;8.570;2023-09-07T07:21:18;6.32;;;3.78;;
20986;SDS011;10652;50.306;8.570;2023-09-07T07:25:20;9.27;;;4.00;;
20986;SDS011;10652;50.306;8.570;2023-09-07T07:29:22;3.58;;;3.05;;
20986;SDS011;10652;50.306;8.570;2023-09-07T07:33:25;4.03;;;2.95;;
20986;SDS011;10652;50.306;8.570;2023-09-07T07:37:28;3.33;;;2.97;;
20986;SDS011;10652;50.306;8.570;2023-09-07T07:41:30;3.53;;;3.20;;
20986;SDS011;10652;50.306;8.570;2023-09-07T07:45:32;3.53;;;2.70;;
20986;SDS011;10652;50.306;8.570;2023-09-07T07:49:38;5.90;;;2.60;;
20986;SDS011;10652;50.306;8.570;2023-09-07T07:53:40;4.90;;;3.25;;
20986;SDS011;10652;50.306;8.570;2023-09-07T07:57:43;3.97;;;2.90;;
20986;SDS011;10652;50.306;8.570;2023-09-07T08:01:46;4.50;;;2.90;;
20986;SDS011;10652;50.306;8.570;2023-09-07T08:05:48;4.10;;;3.28;;
20986;SDS011;10652;50.306;8.570;2023-09-07T08:09:51;5.50;;;3.17;;
20986;SDS011;10652;50.306;8.570;2023-09-07T08:13:53;4.53;;;2.95;;
20986;SDS011;10652;50.306;8.570;2023-09-07T08:17:56;3.20;;;2.90;;
20986;SDS011;10652;50.306;8.570;2023-09-07T08:21:58;2.83;;;2.60;;
20986;SDS011;10652;50.306;8.570;2023-09-07T08:26:00;5.63;;;2.70;;
20986;SDS011;10652;50.306;8.570;2023-09-07T08:30:03;3.90;;;2.90;;
20986;SDS011;10652;50.306;8.570;2023-09-07T08:34:08;3.13;;;2.65;;
20986;SDS011;10652;50.306;8.570;2023-09-07T08:38:13;4.43;;;2.67;;
20986;SDS011;10652;50.306;8.570;2023-09-07T08:42:15;4.57;;;3.05;;
20986;SDS011;10652;50.306;8.570;2023-09-07T08:46:18;3.58;;;2.67;;
20986;SDS011;10652;50.306;8.570;2023-09-07T08:54:26;4.05;;;2.95;;
20986;SDS011;10652;50.306;8.570;2023-09-07T08:58:29;3.20;;;2.70;;
20986;SDS011;10652;50.306;8.570;2023-09-07T09:02:34;3.00;;;2.70;;
20986;SDS011;10652;50.306;8.570;2023-09-07T09:06:38;4.68;;;2.63;;
20986;SDS011;10652;50.306;8.570;2023-09-07T09:10:40;2.90;;;2.70;;
20986;SDS011;10652;50.306;8.570;2023-09-07T09:14:44;4.25;;;2.65;;
20986;SDS011;10652;50.306;8.570;2023-09-07T09:18:47;4.18;;;2.60;;
20986;SDS011;10652;50.306;8.570;2023-09-07T09:22:55;3.83;;;2.70;;
20986;SDS011;10652;50.306;8.570;2023-09-07T09:26:58;3.00;;;2.60;;
20986;SDS011;10652;50.306;8.570;2023-09-07T09:31:00;3.28;;;2.30;;
20986;SDS011;10652;50.306;8.570;2023-09-07T09:35:04;3.08;;;2.72;;
20986;SDS011;10652;50.306;8.570;2023-09-07T09:39:07;4.80;;;2.60;;
20986;SDS011;10652;50.306;8.570;2023-09-07T09:43:12;4.40;;;2.75;;
20986;SDS011;10652;50.306;8.570;2023-09-07T09:47:14;3.60;;;2.58;;
20986;SDS011;10652;50.306;8.570;2023-09-07T09:51:18;4.30;;;2.65;;
20986;SDS011;10652;50.306;8.570;2023-09-07T09:55:20;3.03;;;2.72;;
20986;SDS011;10652;50.306;8.570;2023-09-07T09:59:23;3.13;;;2.80;;
20986;SDS011;10652;50.306;8.570;2023-09-07T10:03:32;3.17;;;2.50;;
20986;SDS011;10652;50.306;8.570;2023-09-07T10:07:41;4.05;;;2.63;;
20986;SDS011;10652;50.306;8.570;2023-09-07T10:11:51;4.10;;;2.50;;
20986;SDS011;10652;50.306;8.570;2023-09-07T10:16:04;4.15;;;2.60;;
20986;SDS011;10652;50.306;8.570;2023-09-07T10:20:11;3.63;;;2.50;;
20986;SDS011;10652;50.306;8.570;2023-09-07T10:24:27;5.30;;;2.63;;
20986;SDS011;10652;50.306;8.570;2023-09-07T10:28:38;3.70;;;3.05;;
20986;SDS011;10652;50.306;8.570;2023-09-07T10:32:40;3.92;;;2.70;;
20986;SDS011;10652;50.306;8.570;2023-09-07T10:36:43;3.75;;;2.45;;
20986;SDS011;10652;50.306;8.570;2023-09-07T10:40:47;2.53;;;2.33;;
20986;SDS011;10652;50.306;8.570;2023-09-07T10:44:49;6.53;;;2.75;;
20986;SDS011;10652;50.306;8.570;2023-09-07T10:48:52;2.85;;;2.40;;
20986;SDS011;10652;50.306;8.570;2023-09-07T10:52:55;3.58;;;2.40;;
20986;SDS011;10652;50.306;8.570;2023-09-07T10:56:57;4.47;;;2.90;;
20986;SDS011;10652;50.306;8.570;2023-09-07T11:01:09;4.90;;;2.60;;
20986;SDS011;10652;50.306;8.570;2023-09-07T11:05:11;5.32;;;2.97;;
20986;SDS011;10652;50.306;8.570;2023-09-07T11:09:14;3.00;;;2.80;;
20986;SDS011;10652;50.306;8.570;2023-09-07T11:13:18;4.40;;;2.53;;
20986;SDS011;10652;50.306;8.570;2023-09-07T11:17:25;4.82;;;2.50;;
20986;SDS011;10652;50.306;8.570;2023-09-07T11:21:29;4.28;;;2.58;;
20986;SDS011;10652;50.306;8.570;2023-09-07T11:25:33;2.97;;;2.58;;
20986;SDS011;10652;50.306;8.570;2023-09-07T11:29:39;2.65;;;2.42;;
20986;SDS011;10652;50.306;8.570;2023-09-07T11:33:41;3.85;;;2.47;;
20986;SDS011;10652;50.306;8.570;2023-09-07T11:37:51;4.43;;;2.50;;
20986;SDS011;10652;50.306;8.570;2023-09-07T11:41:54;2.47;;;2.15;;
20986;SDS011;10652;50.306;8.570;2023-09-07T11:45:56;3.50;;;2.38;;
20986;SDS011;10652;50.306;8.570;2023-09-07T11:49:59;4.07;;;2.40;;
20986;SDS011;10652;50.306;8.570;2023-09-07T11:54:02;3.08;;;2.60;;
20986;SDS011;10652;50.306;8.570;2023-09-07T11:58:04;4.90;;;2.60;;
20986;SDS011;10652;50.306;8.570;2023-09-07T12:02:07;3.80;;;2.50;;
20986;SDS011;10652;50.306;8.570;2023-09-07T12:06:09;2.50;;;2.30;;
20986;SDS011;10652;50.306;8.570;2023-09-07T12:10:12;5.43;;;2.55;;
20986;SDS011;10652;50.306;8.570;2023-09-07T12:14:15;2.40;;;2.20;;
20986;SDS011;10652;50.306;8.570;2023-09-07T12:18:17;3.28;;;2.40;;
20986;SDS011;10652;50.306;8.570;2023-09-07T12:22:20;2.50;;;2.30;;
20986;SDS011;10652;50.306;8.570;2023-09-07T12:26:22;5.20;;;2.63;;
20986;SDS011;10652;50.306;8.570;2023-09-07T12:30:24;4.70;;;2.67;;
20986;SDS011;10652;50.306;8.570;2023-09-07T12:34:26;2.38;;;2.15;;
20986;SDS011;10652;50.306;8.570;2023-09-07T12:38:31;3.25;;;2.45;;
20986;SDS011;10652;50.306;8.570;2023-09-07T12:42:33;3.20;;;2.50;;
20986;SDS011;10652;50.306;8.570;2023-09-07T12:46:35;3.03;;;2.50;;
20986;SDS011;10652;50.306;8.570;2023-09-07T12:50:39;2.45;;;2.10;;
20986;SDS011;10652;50.306;8.570;2023-09-07T12:54:42;3.30;;;2.55;;
20986;SDS011;10652;50.306;8.570;2023-09-07T12:58:47;3.13;;;2.45;;
20986;SDS011;10652;50.306;8.570;2023-09-07T13:02:51;5.75;;;1.90;;
20986;SDS011;10652;50.306;8.570;2023-09-07T13:06:53;3.17;;;2.28;;
20986;SDS011;10652;50.306;8.570;2023-09-07T13:10:56;4.38;;;2.40;;
20986;SDS011;10652;50.306;8.570;2023-09-07T13:14:59;3.45;;;2.40;;
20986;SDS011;10652;50.306;8.570;2023-09-07T13:19:01;2.55;;;2.35;;
20986;SDS011;10652;50.306;8.570;2023-09-07T13:23:03;3.25;;;2.10;;
20986;SDS011;10652;50.306;8.570;2023-09-07T13:27:05;2.50;;;2.30;;
20986;SDS011;10652;50.306;8.570;2023-09-07T13:31:07;3.10;;;2.33;;
20986;SDS011;10652;50.306;8.570;2023-09-07T13:35:10;2.78;;;2.30;;
20986;SDS011;10652;50.306;8.570;2023-09-07T13:39:12;2.42;;;2.22;;
20986;SDS011;10652;50.306;8.570;2023-09-07T13:43:14;2.83;;;2.03;;
20986;SDS011;10652;50.306;8.570;2023-09-07T13:47:16;3.80;;;2.40;;
20986;SDS011;10652;50.306;8.570;2023-09-07T13:51:18;4.32;;;2.38;;
20986;SDS011;10652;50.306;8.570;2023-09-07T13:55:20;3.20;;;2.30;;
20986;SDS011;10652;50.306;8.570;2023-09-07T13:59:23;2.80;;;2.30;;
20986;SDS011;10652;50.306;8.570;2023-09-07T14:03:30;4.88;;;2.40;;
20986;SDS011;10652;50.306;8.570;2023-09-07T14:07:32;3.28;;;2.60;;
20986;SDS011;10652;50.306;8.570;2023-09-07T14:11:35;5.63;;;2.65;;
20986;SDS011;10652;50.306;8.570;2023-09-07T14:15:37;4.05;;;2.55;;
20986;SDS011;10652;50.306;8.570;2023-09-07T14:19:39;3.40;;;2.38;;
20986;SDS011;10652;50.306;8.570;2023-09-07T14:23:42;2.63;;;2.40;;
20986;SDS011;10652;50.306;8.570;2023-09-07T14:27:45;2.47;;;2.28;;
20986;SDS011;10652;50.306;8.570;2023-09-07T14:31:47;3.42;;;2.53;;
20986;SDS011;10652;50.306;8.570;2023-09-07T14:35:50;3.00;;;2.60;;
20986;SDS011;10652;50.306;8.570;2023-09-07T14:39:55;2.60;;;2.40;;
20986;SDS011;10652;50.306;8.570;2023-09-07T14:43:59;3.88;;;2.47;;
20986;SDS011;10652;50.306;8.570;2023-09-07T14:48:02;3.20;;;2.80;;
20986;SDS011;10652;50.306;8.570;2023-09-07T14:52:04;4.05;;;2.53;;
20986;SDS011;10652;50.306;8.570;2023-09-07T14:56:07;4.25;;;2.40;;
20986;SDS011;10652;50.306;8.570;2023-09-07T15:00:09;3.47;;;2.60;;
20986;SDS011;10652;50.306;8.570;2023-09-07T15:04:11;3.22;;;2.55;;
20986;SDS011;10652;50.306;8.570;2023-09-07T15:08:13;5.15;;;2.60;;
20986;SDS011;10652;50.306;8.570;2023-09-07T15:12:16;4.00;;;2.67;;
20986;SDS011;10652;50.306;8.570;2023-09-07T15:16:18;4.15;;;2.80;;
20986;SDS011;10652;50.306;8.570;2023-09-07T15:20:21;7.43;;;2.80;;
20986;SDS011;10652;50.306;8.570;2023-09-07T15:24:23;2.72;;;2.53;;
20986;SDS011;10652;50.306;8.570;2023-09-07T15:28:25;4.47;;;2.80;;
20986;SDS011;10652;50.306;8.570;2023-09-07T15:32:27;5.50;;;2.53;;
20986;SDS011;10652;50.306;8.570;2023-09-07T15:36:30;4.88;;;2.90;;
20986;SDS011;10652;50.306;8.570;2023-09-07T15:40:32;3.55;;;2.35;;
20986;SDS011;10652;50.306;8.570;2023-09-07T15:44:34;5.55;;;2.60;;
20986;SDS011;10652;50.306;8.570;2023-09-07T15:48:37;3.10;;;2.40;;
20986;SDS011;10652;50.306;8.570;2023-09-07T15:52:44;5.20;;;2.80;;
20986;SDS011;10652;50.306;8.570;2023-09-07T16:00:53;3.10;;;2.63;;
20986;SDS011;10652;50.306;8.570;2023-09-07T16:04:55;2.70;;;2.50;;
20986;SDS011;10652;50.306;8.570;2023-09-07T16:08:57;3.10;;;2.72;;
20986;SDS011;10652;50.306;8.570;2023-09-07T16:12:59;3.60;;;2.40;;
20986;SDS011;10652;50.306;8.570;2023-09-07T16:17:01;3.70;;;2.65;;
20986;SDS011;10652;50.306;8.570;2023-09-07T16:21:03;3.17;;;2.67;;
20986;SDS011;10652;50.306;8.570;2023-09-07T16:25:10;2.65;;;2.45;;
20986;SDS011;10652;50.306;8.570;2023-09-07T16:29:12;4.05;;;2.97;;
20986;SDS011;10652;50.306;8.570;2023-09-07T16:33:15;3.20;;;2.90;;
20986;SDS011;10652;50.306;8.570;2023-09-07T16:37:17;5.68;;;2.67;;
20986;SDS011;10652;50.306;8.570;2023-09-07T16:41:19;3.67;;;2.80;;
20986;SDS011;10652;50.306;8.570;2023-09-07T16:45:21;4.30;;;2.78;;
20986;SDS011;10652;50.306;8.570;2023-09-07T16:49:23;3.53;;;2.50;;
20986;SDS011;10652;50.306;8.570;2023-09-07T16:53:25;6.35;;;3.10;;
20986;SDS011;10652;50.306;8.570;2023-09-07T16:57:27;3.90;;;2.88;;
20986;SDS011;10652;50.306;8.570;2023-09-07T17:01:31;4.78;;;2.58;;
20986;SDS011;10652;50.306;8.570;2023-09-07T17:05:34;14.18;;;3.40;;
20986;SDS011;10652;50.306;8.570;2023-09-07T17:09:36;5.28;;;2.97;;
20986;SDS011;10652;50.306;8.570;2023-09-07T17:13:39;2.95;;;2.58;;
20986;SDS011;10652;50.306;8.570;2023-09-07T17:17:56;4.28;;;2.60;;
20986;SDS011;10652;50.306;8.570;2023-09-07T17:21:59;3.53;;;2.28;;
20986;SDS011;10652;50.306;8.570;2023-09-07T17:26:01;5.50;;;3.00;;
20986;SDS011;10652;50.306;8.570;2023-09-07T17:30:06;4.95;;;2.60;;
20986;SDS011;10652;50.306;8.570;2023-09-07T17:34:09;3.30;;;2.67;;
20986;SDS011;10652;50.306;8.570;2023-09-07T17:38:11;5.00;;;2.80;;
20986;SDS011;10652;50.306;8.570;2023-09-07T17:42:13;2.90;;;2.60;;
20986;SDS011;10652;50.306;8.570;2023-09-07T17:46:15;3.10;;;2.80;;
20986;SDS011;10652;50.306;8.570;2023-09-07T17:50:18;4.22;;;3.05;;
20986;SDS011;10652;50.306;8.570;2023-09-07T17:54:20;3.95;;;2.80;;
20986;SDS011;10652;50.306;8.570;2023-09-07T17:58:22;4.80;;;2.92;;
20986;SDS011;10652;50.306;8.570;2023-09-07T18:02:25;4.80;;;3.30;;
20986;SDS011;10652;50.306;8.570;2023-09-07T18:06:29;3.30;;;2.90;;
20986;SDS011;10652;50.306;8.570;2023-09-07T18:10:32;3.63;;;2.55;;
20986;SDS011;10652;50.306;8.570;2023-09-07T18:14:34;4.03;;;3.38;;
20986;SDS011;10652;50.306;8.570;2023-09-07T18:18:37;3.78;;;3.30;;
20986;SDS011;10652;50.306;8.570;2023-09-07T18:22:39;3.70;;;2.97;;
20986;SDS011;10652;50.306;8.570;2023-09-07T18:26:41;4.03;;;3.25;;
20986;SDS011;10652;50.306;8.570;2023-09-07T18:30:48;4.50;;;3.57;;
20986;SDS011;10652;50.306;8.570;2023-09-07T18:34:50;5.57;;;3.30;;
20986;SDS011;10652;50.306;8.570;2023-09-07T18:38:52;4.63;;;3.03;;
20986;SDS011;10652;50.306;8.570;2023-09-07T18:42:54;3.42;;;2.88;;
20986;SDS011;10652;50.306;8.570;2023-09-07T18:46:56;4.75;;;3.10;;
20986;SDS011;10652;50.306;8.570;2023-09-07T18:51:02;6.57;;;3.20;;
20986;SDS011;10652;50.306;8.570;2023-09-07T18:55:05;5.45;;;3.35;;
20986;SDS011;10652;50.306;8.570;2023-09-07T18:59:07;9.48;;;3.22;;
20986;SDS011;10652;50.306;8.570;2023-09-07T19:03:11;6.72;;;3.38;;
20986;SDS011;10652;50.306;8.570;2023-09-07T19:07:14;5.57;;;3.42;;
20986;SDS011;10652;50.306;8.570;2023-09-07T19:11:21;6.95;;;3.40;;
20986;SDS011;10652;50.306;8.570;2023-09-07T19:15:23;8.10;;;3.95;;
20986;SDS011;10652;50.306;8.570;2023-09-07T19:19:25;6.05;;;3.47;;
20986;SDS011;10652;50.306;8.570;2023-09-07T19:23:28;7.72;;;3.92;;
20986;SDS011;10652;50.306;8.570;2023-09-07T19:27:30;13.85;;;4.00;;
20986;SDS011;10652;50.306;8.570;2023-09-07T19:31:32;6.32;;;3.63;;
20986;SDS011;10652;50.306;8.570;2023-09-07T19:35:35;5.57;;;3.75;;
20986;SDS011;10652;50.306;8.570;2023-09-07T19:39:37;6.38;;;3.78;;
20986;SDS011;10652;50.306;8.570;2023-09-07T19:43:42;5.85;;;3.75;;
20986;SDS011;10652;50.306;8.570;2023-09-07T19:47:45;5.13;;;3.80;;
20986;SDS011;10652;50.306;8.570;2023-09-07T19:51:47;4.22;;;3.53;;
20986;SDS011;10652;50.306;8.570;2023-09-07T19:55:49;6.55;;;4.18;;
20986;SDS011;10652;50.306;8.570;2023-09-07T19:59:52;5.20;;;3.50;;
20986;SDS011;10652;50.306;8.570;2023-09-07T20:03:54;4.93;;;3.33;;
20986;SDS011;10652;50.306;8.570;2023-09-07T20:07:57;4.38;;;3.17;;
20986;SDS011;10652;50.306;8.570;2023-09-07T20:11:59;6.38;;;4.28;;
20986;SDS011;10652;50.306;8.570;2023-09-07T20:16:03;4.20;;;3.65;;
20986;SDS011;10652;50.306;8.570;2023-09-07T20:20:05;4.80;;;3.53;;
20986;SDS011;10652;50.306;8.570;2023-09-07T20:24:08;5.03;;;3.53;;
20986;SDS011;10652;50.306;8.570;2023-09-07T20:28:10;4.10;;;3.20;;
20986;SDS011;10652;50.306;8.570;2023-09-07T20:32:13;4.50;;;3.28;;
20986;SDS011;10652;50.306;8.570;2023-09-07T20:36:15;3.83;;;3.40;;
20986;SDS011;10652;50.306;8.570;2023-09-07T20:40:17;6.53;;;3.95;;
20986;SDS011;10652;50.306;8.570;2023-09-07T20:44:19;6.15;;;3.97;;
20986;SDS011;10652;50.306;8.570;2023-09-07T20:48:22;5.82;;;3.80;;
20986;SDS011;10652;50.306;8.570;2023-09-07T20:52:24;3.75;;;3.45;;
20986;SDS011;10652;50.306;8.570;2023-09-07T20:56:26;6.10;;;3.88;;
20986;SDS011;10652;50.306;8.570;2023-09-07T21:00:28;5.53;;;3.97;;
20986;SDS011;10652;50.306;8.570;2023-09-07T21:04:31;4.32;;;3.90;;
20986;SDS011;10652;50.306;8.570;2023-09-07T21:08:33;7.13;;;3.63;;
20986;SDS011;10652;50.306;8.570;2023-09-07T21:12:37;5.28;;;3.70;;
20986;SDS011;10652;50.306;8.570;2023-09-07T21:16:39;6.30;;;4.20;;
20986;SDS011;10652;50.306;8.570;2023-09-07T21:20:41;4.28;;;3.70;;
20986;SDS011;10652;50.306;8.570;2023-09-07T21:24:44;7.63;;;4.15;;
20986;SDS011;10652;50.306;8.570;2023-09-07T21:28:46;7.35;;;4.10;;
20986;SDS011;10652;50.306;8.570;2023-09-07T21:32:48;5.32;;;4.28;;
20986;SDS011;10652;50.306;8.570;2023-09-07T21:36:50;5.25;;;4.15;;
20986;SDS011;10652;50.306;8.570;2023-09-07T21:40:52;4.22;;;3.83;;
20986;SDS011;10652;50.306;8.570;2023-09-07T21:44:54;5.63;;;4.60;;
20986;SDS011;10652;50.306;8.570;2023-09-07T21:48:57;4.85;;;4.32;;
20986;SDS011;10652;50.306;8.570;2023-09-07T21:52:59;5.53;;;4.30;;
20986;SDS011;10652;50.306;8.570;2023-09-07T21:57:01;6.13;;;4.25;;
20986;SDS011;10652;50.306;8.570;2023-09-07T22:01:06;5.28;;;4.18;;
20986;SDS011;10652;50.306;8.570;2023-09-07T22:05:09;4.38;;;3.97;;
20986;SDS011;10652;50.306;8.570;2023-09-07T22:09:12;4.95;;;4.00;;
20986;SDS011;10652;50.306;8.570;2023-09-07T22:13:14;4.72;;;3.83;;
20986;SDS011;10652;50.306;8.570;2023-09-07T22:17:16;5.20;;;3.92;;
20986;SDS011;10652;50.306;8.570;2023-09-07T22:21:18;4.55;;;3.90;;
20986;SDS011;10652;50.306;8.570;2023-09-07T22:25:23;4.78;;;3.58;;
20986;SDS011;10652;50.306;8.570;2023-09-07T22:29:25;4.80;;;3.85;;
20986;SDS011;10652;50.306;8.570;2023-09-07T22:33:27;4.60;;;3.80;;
20986;SDS011;10652;50.306;8.570;2023-09-07T22:37:29;6.47;;;3.80;;
20986;SDS011;10652;50.306;8.570;2023-09-07T22:41:31;5.32;;;4.00;;
20986;SDS011;10652;50.306;8.570;2023-09-07T22:45:37;6.03;;;3.60;;
20986;SDS011;10652;50.306;8.570;2023-09-07T22:53:43;7.22;;;4.00;;
20986;SDS011;10652;50.306;8.570;2023-09-07T22:57:45;5.32;;;4.05;;
20986;SDS011;10652;50.306;8.570;2023-09-07T23:01:47;4.63;;;3.92;;
20986;SDS011;10652;50.306;8.570;2023-09-07T23:05:49;5.05;;;4.07;;
20986;SDS011;10652;50.306;8.570;2023-09-07T23:09:53;4.60;;;3.90;;
20986;SDS011;10652;50.306;8.570;2023-09-07T23:13:55;7.15;;;3.88;;
20986;SDS011;10652;50.306;8.570;2023-09-07T23:17:57;4.47;;;4.03;;
20986;SDS011;10652;50.306;8.570;2023-09-07T23:21:59;4.00;;;3.60;;
20986;SDS011;10652;50.306;8.570;2023-09-07T23:26:01;5.15;;;3.88;;
20986;SDS011;10652;50.306;8.570;2023-09-07T23:30:04;4.30;;;3.83;;
20986;SDS011;10652;50.306;8.570;2023-09-07T23:34:07;6.53;;;4.65;;
20986;SDS011;10652;50.306;8.570;2023-09-07T23:38:11;5.30;;;4.10;;
20986;SDS011;10652;50.306;8.570;2023-09-07T23:42:13;5.00;;;4.07;;
20986;SDS011;10652;50.306;8.570;2023-09-07T23:46:15;4.47;;;3.83;;
20986;SDS011;10652;50.306;8.570;2023-09-07T23:50:17;4.47;;;4.05;;
20986;SDS011;10652;50.306;8.570;2023-09-07T23:54:19;6.45;;;4.15;;
20986;SDS011;10652;50.306;8.570;2023-09-07T23:58:22;7.30;;;4.28;;
